createdAt,value
2022-12-18T00:01:42.047Z,1.50
2022-12-18T00:04:14.136Z,1.50
2022-12-18T00:06:40.983Z,1.50
2022-12-18T00:09:08.405Z,1.50
2022-12-18T00:11:35.068Z,1.50
2022-12-18T00:14:01.777Z,1.50
2022-12-18T00:16:29.089Z,1.50
2022-12-18T00:18:57.639Z,1.40
2022-12-18T00:21:24.325Z,1.40
2022-12-18T00:23:51.148Z,1.40
2022-12-18T00:26:23.034Z,1.40
2022-12-18T00:28:50.071Z,1.40
2022-12-18T00:31:21.316Z,1.40
2022-12-18T00:33:48.123Z,1.40
2022-12-18T00:36:21.969Z,1.40
2022-12-18T00:38:48.824Z,1.30
2022-12-18T00:41:16.331Z,1.30
2022-12-18T00:43:43.172Z,1.30
2022-12-18T00:46:09.953Z,1.30
2022-12-18T00:48:36.688Z,1.30
2022-12-18T00:51:03.510Z,1.30
2022-12-18T00:53:30.209Z,1.30
2022-12-18T00:55:56.892Z,1.30
2022-12-18T00:58:23.586Z,1.20
2022-12-18T01:00:50.300Z,1.20
2022-12-18T01:03:17.092Z,1.20
2022-12-18T01:05:43.877Z,1.20
2022-12-18T01:08:10.565Z,1.30
2022-12-18T01:10:37.228Z,1.20
2022-12-18T01:13:03.949Z,1.20
2022-12-18T01:15:30.610Z,1.20
2022-12-18T01:17:57.331Z,1.20
2022-12-18T01:20:24.016Z,1.20
2022-12-18T01:22:50.672Z,1.20
2022-12-18T01:25:17.437Z,1.20
2022-12-18T01:27:44.144Z,1.20
2022-12-18T01:30:11.342Z,1.20
2022-12-18T01:32:38.063Z,1.10
2022-12-18T01:35:05.201Z,1.10
2022-12-18T01:37:31.965Z,1.10
2022-12-18T01:39:58.648Z,1.10
2022-12-18T01:42:25.357Z,1.10
2022-12-18T01:44:56.476Z,1.10
2022-12-18T01:47:46.256Z,1.00
2022-12-18T01:50:15.910Z,1.00
2022-12-18T01:52:44.248Z,1.00
2022-12-18T01:55:11.140Z,1.00
2022-12-18T01:57:38.520Z,1.00
2022-12-18T02:00:08.917Z,1.00
2022-12-18T02:02:35.737Z,1.00
2022-12-18T02:05:03.544Z,1.00
2022-12-18T02:07:44.430Z,1.00
2022-12-18T02:10:20.464Z,1.00
2022-12-18T02:12:54.097Z,1.00
2022-12-18T02:15:24.344Z,1.00
2022-12-18T02:17:58.432Z,1.00
2022-12-18T02:20:37.033Z,1.00
2022-12-18T02:23:34.557Z,1.00
2022-12-18T02:26:01.207Z,1.00
2022-12-18T02:28:30.701Z,1.00
2022-12-18T02:30:57.812Z,1.00
2022-12-18T02:33:24.525Z,1.00
2022-12-18T02:35:51.196Z,1.00
2022-12-18T02:38:17.897Z,1.00
2022-12-18T02:40:44.623Z,1.00
2022-12-18T02:43:12.667Z,1.10
2022-12-18T02:45:56.134Z,1.00
2022-12-18T02:48:31.991Z,1.10
2022-12-18T02:51:24.915Z,1.10
2022-12-18T02:53:54.652Z,1.10
2022-12-18T02:56:22.871Z,1.10
2022-12-18T02:58:52.554Z,1.10
2022-12-18T03:01:40.059Z,1.10
2022-12-18T03:04:20.375Z,1.10
2022-12-18T03:06:51.105Z,1.10
2022-12-18T03:09:23.477Z,1.10
2022-12-18T03:11:54.860Z,1.20
2022-12-18T03:14:21.593Z,1.20
2022-12-18T03:16:49.821Z,1.20
2022-12-18T03:19:17.986Z,1.20
2022-12-18T03:21:48.574Z,1.10
2022-12-18T03:24:15.251Z,1.10
2022-12-18T03:26:44.914Z,1.10
2022-12-18T03:29:15.247Z,1.10
2022-12-18T03:31:42.138Z,1.10
2022-12-18T03:34:17.218Z,1.10
2022-12-18T03:36:43.901Z,1.10
2022-12-18T03:39:10.566Z,1.10
2022-12-18T03:41:52.563Z,1.10
2022-12-18T03:44:25.236Z,1.10
2022-12-18T03:46:55.754Z,1.10
2022-12-18T03:49:47.686Z,1.10
2022-12-18T03:52:33.729Z,1.10
2022-12-18T03:55:00.412Z,1.10
2022-12-18T03:57:28.967Z,1.10
2022-12-18T04:00:08.812Z,1.00
2022-12-18T04:02:35.787Z,1.00
2022-12-18T04:05:04.002Z,1.00
2022-12-18T04:07:30.670Z,1.10
2022-12-18T04:09:57.909Z,1.00
2022-12-18T04:12:28.096Z,1.00
2022-12-18T04:14:54.812Z,1.00
2022-12-18T04:17:21.771Z,1.10
2022-12-18T04:19:48.443Z,1.10
2022-12-18T04:22:15.143Z,1.10
2022-12-18T04:24:41.874Z,1.10
2022-12-18T04:27:08.611Z,1.10
2022-12-18T04:29:35.281Z,1.10
2022-12-18T04:32:01.972Z,1.10
2022-12-18T04:34:29.548Z,1.10
2022-12-18T04:36:56.250Z,1.20
2022-12-18T04:39:23.735Z,1.20
2022-12-18T04:41:51.440Z,1.20
2022-12-18T04:44:18.397Z,1.30
2022-12-18T04:46:45.119Z,1.40
2022-12-18T04:49:11.802Z,1.40
2022-12-18T04:51:38.491Z,1.40
2022-12-18T04:54:05.191Z,1.50
2022-12-18T04:56:32.391Z,1.60
2022-12-18T04:58:59.064Z,1.60
2022-12-18T05:01:30.998Z,1.60
2022-12-18T05:04:01.286Z,1.70
2022-12-18T05:06:27.995Z,1.70
2022-12-18T05:08:54.675Z,1.70
2022-12-18T05:11:21.368Z,1.70
2022-12-18T05:13:48.066Z,1.80
2022-12-18T05:16:15.011Z,1.80
2022-12-18T05:18:41.772Z,1.70
2022-12-18T05:21:08.572Z,1.70
2022-12-18T05:23:35.241Z,1.80
2022-12-18T05:26:03.070Z,1.80
2022-12-18T05:28:30.475Z,1.80
2022-12-18T05:30:59.217Z,1.80
2022-12-18T05:33:26.622Z,1.80
2022-12-18T05:35:57.817Z,1.80
2022-12-18T05:38:25.343Z,1.80
2022-12-18T05:40:52.308Z,1.80
2022-12-18T05:43:21.604Z,1.80
2022-12-18T05:45:48.780Z,1.80
2022-12-18T05:48:15.784Z,1.80
2022-12-18T05:50:43.838Z,1.80
2022-12-18T05:53:10.580Z,1.80
2022-12-18T05:55:37.604Z,1.70
2022-12-18T05:58:05.021Z,1.80
2022-12-18T06:00:32.328Z,1.80
2022-12-18T06:02:59.632Z,1.70
2022-12-18T06:05:26.618Z,1.70
2022-12-18T06:07:53.300Z,1.60
2022-12-18T06:10:20.305Z,1.60
2022-12-18T06:12:46.985Z,1.70
2022-12-18T06:15:14.251Z,1.70
2022-12-18T06:17:40.958Z,1.70
2022-12-18T06:20:08.043Z,1.70
2022-12-18T06:22:34.713Z,1.70
2022-12-18T06:25:01.605Z,1.70
2022-12-18T06:27:28.267Z,1.70
2022-12-18T06:29:54.959Z,1.70
2022-12-18T06:32:21.803Z,1.70
2022-12-18T06:34:48.493Z,1.70
2022-12-18T06:37:15.143Z,1.70
2022-12-18T06:39:41.826Z,1.70
2022-12-18T06:42:08.486Z,1.70
2022-12-18T06:44:35.231Z,1.70
2022-12-18T06:47:02.068Z,1.70
2022-12-18T06:49:30.653Z,1.70
2022-12-18T06:51:57.547Z,1.80
2022-12-18T06:54:24.217Z,1.70
2022-12-18T06:56:50.891Z,1.80
2022-12-18T06:59:17.794Z,1.80
2022-12-18T07:01:44.579Z,1.80
2022-12-18T07:04:11.419Z,1.90
2022-12-18T07:06:38.108Z,1.90
2022-12-18T07:09:04.804Z,1.90
2022-12-18T07:11:33.669Z,1.90
2022-12-18T07:14:00.384Z,1.90
2022-12-18T07:16:27.319Z,1.90
2022-12-18T07:18:54.887Z,1.90
2022-12-18T07:21:21.646Z,1.90
2022-12-18T07:23:48.345Z,1.90
2022-12-18T07:26:16.213Z,1.90
2022-12-18T07:28:43.299Z,1.90
2022-12-18T07:31:21.651Z,1.80
2022-12-18T07:33:48.748Z,1.90
2022-12-18T07:36:15.451Z,1.90
2022-12-18T07:38:42.224Z,1.80
2022-12-18T07:41:10.970Z,1.90
2022-12-18T07:43:38.133Z,1.90
2022-12-18T07:46:05.490Z,1.90
2022-12-18T07:48:32.398Z,1.90
2022-12-18T07:51:03.141Z,1.90
2022-12-18T07:53:29.807Z,2.00
2022-12-18T07:56:25.589Z,2.10
2022-12-18T07:58:44.528Z,2.00
2022-12-18T08:01:12.066Z,2.10
2022-12-18T08:03:39.547Z,2.10
2022-12-18T08:06:08.103Z,2.10
2022-12-18T08:08:34.993Z,2.20
2022-12-18T08:11:01.695Z,2.20
2022-12-18T08:13:28.599Z,2.30
2022-12-18T08:16:06.586Z,2.30
2022-12-18T08:18:35.351Z,2.30
2022-12-18T08:21:12.516Z,2.30
2022-12-18T08:23:42.694Z,2.40
2022-12-18T08:26:10.384Z,2.40
2022-12-18T08:28:37.074Z,2.50
2022-12-18T08:31:03.843Z,2.50
2022-12-18T08:33:30.584Z,2.50
2022-12-18T08:35:57.222Z,2.50
2022-12-18T08:38:23.946Z,2.50
2022-12-18T08:40:50.606Z,2.60
2022-12-18T08:43:17.304Z,2.60
2022-12-18T08:45:44.096Z,2.60
2022-12-18T08:48:10.860Z,2.60
2022-12-18T08:50:37.562Z,2.70
2022-12-18T08:53:04.340Z,2.70
2022-12-18T08:55:31.021Z,2.70
2022-12-18T08:57:57.736Z,2.70
2022-12-18T09:00:24.461Z,2.70
2022-12-18T09:02:51.367Z,2.80
2022-12-18T09:05:18.153Z,2.80
2022-12-18T09:07:44.852Z,2.80
2022-12-18T09:10:12.105Z,2.80
2022-12-18T09:12:38.783Z,2.80
2022-12-18T09:15:06.020Z,2.80
2022-12-18T09:17:32.700Z,2.80
2022-12-18T09:19:59.403Z,2.80
2022-12-18T09:22:26.136Z,2.90
2022-12-18T09:24:52.816Z,2.90
2022-12-18T09:27:19.490Z,2.90
2022-12-18T09:29:46.723Z,3.00
2022-12-18T09:32:16.374Z,2.90
2022-12-18T09:34:47.259Z,3.00
2022-12-18T09:37:14.023Z,3.00
2022-12-18T09:39:40.714Z,3.00
2022-12-18T09:42:07.399Z,3.00
2022-12-18T09:44:44.472Z,3.00
2022-12-18T09:47:22.182Z,3.00
2022-12-18T09:49:51.945Z,3.00
2022-12-18T09:52:36.940Z,3.00
2022-12-18T09:55:37.122Z,3.10
2022-12-18T09:58:19.580Z,3.10
2022-12-18T10:00:46.252Z,3.20
2022-12-18T10:03:14.456Z,3.20
2022-12-18T10:05:59.494Z,3.20
2022-12-18T10:08:52.765Z,3.20
2022-12-18T10:11:45.043Z,3.20
2022-12-18T10:14:38.826Z,3.20
2022-12-18T10:17:15.138Z,3.20
2022-12-18T10:19:53.528Z,3.20
2022-12-18T10:22:36.402Z,3.20
2022-12-18T10:25:30.240Z,3.20
2022-12-18T10:28:18.354Z,3.30
2022-12-18T10:30:45.329Z,3.30
2022-12-18T10:33:20.766Z,3.30
2022-12-18T10:35:48.170Z,3.30
2022-12-18T10:38:17.875Z,3.30
2022-12-18T10:41:01.156Z,3.30
2022-12-18T10:43:32.106Z,3.30
2022-12-18T10:46:03.000Z,3.40
2022-12-18T10:48:29.849Z,3.40
2022-12-18T10:51:12.412Z,3.50
2022-12-18T10:53:40.775Z,3.60
2022-12-18T10:56:07.836Z,3.60
2022-12-18T10:58:38.848Z,3.60
2022-12-18T11:01:12.325Z,3.60
2022-12-18T11:04:02.703Z,3.70
2022-12-18T11:06:29.855Z,3.70
2022-12-18T11:09:01.650Z,3.70
2022-12-18T11:11:28.384Z,3.80
2022-12-18T11:14:04.984Z,3.80
2022-12-18T11:16:37.446Z,3.70
2022-12-18T11:19:36.763Z,3.70
2022-12-18T11:22:18.662Z,3.70
2022-12-18T11:25:29.645Z,3.70
2022-12-18T11:27:42.181Z,3.70
2022-12-18T11:30:21.055Z,3.70
2022-12-18T11:33:07.983Z,3.70
2022-12-18T11:35:49.442Z,3.70
2022-12-18T11:38:19.132Z,3.70
2022-12-18T11:40:47.098Z,3.70
2022-12-18T11:43:33.294Z,3.80
2022-12-18T11:46:07.807Z,3.80
2022-12-18T11:48:40.024Z,3.80
2022-12-18T11:51:10.442Z,3.80
2022-12-18T11:53:37.144Z,3.80
2022-12-18T11:56:27.755Z,3.80
2022-12-18T11:59:07.159Z,3.70
2022-12-18T12:01:37.645Z,3.80
2022-12-18T12:04:27.258Z,3.80
2022-12-18T12:07:12.349Z,3.80
2022-12-18T12:09:46.237Z,3.80
2022-12-18T12:12:15.673Z,3.80
2022-12-18T12:14:48.623Z,3.80
2022-12-18T12:17:15.193Z,3.80
2022-12-18T12:19:54.058Z,3.80
2022-12-18T12:22:37.770Z,3.80
2022-12-18T12:25:10.424Z,3.80
2022-12-18T12:28:15.299Z,3.80
2022-12-18T12:30:53.890Z,3.80
2022-12-18T12:33:38.701Z,3.80
2022-12-18T12:36:11.411Z,3.80
2022-12-18T12:38:58.649Z,3.70
2022-12-18T12:41:26.884Z,3.80
2022-12-18T12:43:53.777Z,3.80
2022-12-18T12:46:21.047Z,3.80
2022-12-18T12:49:00.608Z,3.70
2022-12-18T12:51:31.787Z,3.80
2022-12-18T12:53:59.452Z,3.80
2022-12-18T12:56:30.724Z,3.70
2022-12-18T12:59:00.423Z,3.70
2022-12-18T13:01:29.952Z,3.60
2022-12-18T13:07:16.156Z,3.60
2022-12-18T13:10:31.975Z,3.60
2022-12-18T13:13:09.376Z,3.60
2022-12-18T13:13:43.824Z,3.60
2022-12-18T13:15:47.116Z,3.60
2022-12-18T13:18:23.274Z,3.60
2022-12-18T13:21:22.881Z,3.60
2022-12-18T13:23:49.614Z,3.70
2022-12-18T13:26:24.792Z,3.60
2022-12-18T13:28:54.995Z,3.60
2022-12-18T13:31:31.016Z,3.70
2022-12-18T13:34:26.685Z,3.70
2022-12-18T13:36:55.545Z,3.70
2022-12-18T13:39:34.740Z,3.70
2022-12-18T13:42:08.095Z,3.60
2022-12-18T13:44:41.810Z,3.70
2022-12-18T13:47:34.448Z,3.70
2022-12-18T13:50:01.956Z,3.70
2022-12-18T13:52:35.964Z,3.70
2022-12-18T13:55:03.506Z,3.80
2022-12-18T13:57:33.131Z,3.70
2022-12-18T14:00:15.594Z,3.70
2022-12-18T14:02:42.473Z,3.80
2022-12-18T14:05:47.884Z,3.80
2022-12-18T14:08:15.641Z,3.80
2022-12-18T14:10:47.990Z,3.80
2022-12-18T14:13:37.179Z,3.80
2022-12-18T14:16:05.099Z,3.80
2022-12-18T14:18:48.898Z,3.80
2022-12-18T14:21:28.090Z,3.80
2022-12-18T14:24:07.099Z,3.80
2022-12-18T14:26:33.881Z,3.80
2022-12-18T14:29:02.371Z,3.80
2022-12-18T14:31:30.616Z,3.90
2022-12-18T14:33:57.304Z,3.80
2022-12-18T14:36:28.394Z,3.90
2022-12-18T14:38:59.054Z,3.90
2022-12-18T14:41:26.222Z,3.90
2022-12-18T14:43:54.034Z,3.90
2022-12-18T14:46:40.211Z,3.90
2022-12-18T14:49:29.961Z,4.00
2022-12-18T14:52:00.886Z,4.00
2022-12-18T14:54:28.123Z,4.00
2022-12-18T14:57:06.324Z,4.00
2022-12-18T14:59:33.028Z,4.00
2022-12-18T15:02:18.251Z,4.10
2022-12-18T15:04:45.168Z,4.10
2022-12-18T15:07:15.996Z,4.10
2022-12-18T15:10:04.802Z,4.10
2022-12-18T15:12:36.599Z,4.10
2022-12-18T15:15:04.609Z,4.10
2022-12-18T15:17:31.416Z,4.20
2022-12-18T15:20:10.304Z,4.10
2022-12-18T15:22:37.199Z,4.10
2022-12-18T15:25:17.419Z,4.20
2022-12-18T15:27:46.823Z,4.20
2022-12-18T15:30:18.513Z,4.20
2022-12-18T15:32:45.307Z,4.20
2022-12-18T15:35:12.057Z,4.20
2022-12-18T15:37:38.910Z,4.30
2022-12-18T15:40:07.278Z,4.30
2022-12-18T15:42:33.976Z,4.30
2022-12-18T15:45:00.679Z,4.40
2022-12-18T15:47:27.340Z,4.40
2022-12-18T15:49:54.007Z,4.40
2022-12-18T15:52:20.678Z,4.40
2022-12-18T15:54:47.374Z,4.40
2022-12-18T15:57:14.171Z,4.40
2022-12-18T15:59:41.031Z,4.50
2022-12-18T16:02:13.805Z,4.50
2022-12-18T16:04:40.574Z,4.50
2022-12-18T16:07:16.227Z,4.50
2022-12-18T16:09:49.898Z,4.60
2022-12-18T16:12:22.788Z,4.60
2022-12-18T16:14:49.524Z,4.60
2022-12-18T16:17:16.226Z,4.70
2022-12-18T16:19:42.922Z,4.70
2022-12-18T16:22:22.721Z,4.70
2022-12-18T16:24:49.684Z,4.70
2022-12-18T16:27:16.363Z,4.70
2022-12-18T16:29:43.053Z,4.80
2022-12-18T16:32:11.778Z,4.80
2022-12-18T16:34:38.509Z,4.90
2022-12-18T16:37:06.622Z,4.90
2022-12-18T16:39:36.832Z,5.00
2022-12-18T16:42:17.593Z,5.00
2022-12-18T16:44:44.660Z,5.00
2022-12-18T16:47:13.243Z,5.00
2022-12-18T16:49:42.012Z,5.10
2022-12-18T16:52:08.666Z,5.10
2022-12-18T16:54:35.428Z,5.10
2022-12-18T16:57:02.252Z,5.20
2022-12-18T16:59:29.117Z,5.20
2022-12-18T17:01:57.009Z,5.30
2022-12-18T17:04:23.869Z,5.30
2022-12-18T17:06:50.526Z,5.40
2022-12-18T17:09:17.647Z,5.40
2022-12-18T17:11:44.366Z,5.40
2022-12-18T17:14:19.126Z,5.40
2022-12-18T17:16:46.381Z,5.50
2022-12-18T17:19:17.076Z,5.50
2022-12-18T17:21:45.033Z,5.50
2022-12-18T17:24:11.856Z,5.60
2022-12-18T17:26:38.559Z,5.60
2022-12-18T17:29:05.311Z,5.60
2022-12-18T17:31:32.220Z,5.60
2022-12-18T17:33:58.948Z,5.70
2022-12-18T17:36:25.768Z,5.70
2022-12-18T17:38:56.371Z,5.70
2022-12-18T17:41:23.324Z,5.70
2022-12-18T17:43:54.662Z,5.70
2022-12-18T17:46:21.563Z,5.80
2022-12-18T17:48:48.468Z,5.80
2022-12-18T17:51:15.438Z,5.80
2022-12-18T17:53:42.465Z,5.90
2022-12-18T17:56:12.272Z,5.90
2022-12-18T17:58:39.114Z,5.90
2022-12-18T18:01:06.053Z,5.90
2022-12-18T18:03:33.317Z,6.00
2022-12-18T18:06:00.813Z,6.00
2022-12-18T18:08:27.740Z,6.00
2022-12-18T18:10:54.849Z,6.00
2022-12-18T18:13:23.029Z,6.00
2022-12-18T18:15:58.949Z,6.00
2022-12-18T18:18:25.689Z,6.00
2022-12-18T18:20:52.367Z,6.00
2022-12-18T18:23:20.680Z,6.10
2022-12-18T18:25:47.402Z,6.00
2022-12-18T18:28:14.091Z,6.10
2022-12-18T18:30:40.743Z,6.10
2022-12-18T18:33:11.832Z,6.10
2022-12-18T18:35:53.790Z,6.10
2022-12-18T18:38:21.005Z,6.20
2022-12-18T18:40:47.718Z,6.20
2022-12-18T18:43:14.401Z,6.20
2022-12-18T18:45:41.140Z,6.20
2022-12-18T18:48:09.596Z,6.20
2022-12-18T18:50:36.287Z,6.20
2022-12-18T18:53:02.965Z,6.20
2022-12-18T18:55:29.611Z,6.30
2022-12-18T18:57:56.293Z,6.30
2022-12-18T19:00:23.156Z,6.30
2022-12-18T19:02:50.367Z,6.30
2022-12-18T19:05:17.233Z,6.30
2022-12-18T19:07:43.902Z,6.30
2022-12-18T19:10:10.566Z,6.30
2022-12-18T19:12:37.269Z,6.30
2022-12-18T19:15:06.604Z,6.30
2022-12-18T19:17:33.384Z,6.30
2022-12-18T19:20:00.797Z,6.40
2022-12-18T19:22:27.498Z,6.40
2022-12-18T19:24:54.212Z,6.40
2022-12-18T19:27:20.898Z,6.40
2022-12-18T19:29:48.962Z,6.40
2022-12-18T19:32:15.731Z,6.40
2022-12-18T19:34:42.476Z,6.40
2022-12-18T19:37:11.866Z,6.50
2022-12-18T19:39:38.641Z,6.50
2022-12-18T19:42:05.375Z,6.50
2022-12-18T19:44:32.067Z,6.50
2022-12-18T19:46:58.739Z,6.50
2022-12-18T19:49:25.409Z,6.60
2022-12-18T19:51:52.116Z,6.60
2022-12-18T19:54:18.835Z,6.60
2022-12-18T19:56:45.804Z,6.60
2022-12-18T19:59:12.509Z,6.70
2022-12-18T20:01:39.296Z,6.70
2022-12-18T20:04:06.369Z,6.70
2022-12-18T20:06:35.099Z,6.70
2022-12-18T20:09:04.415Z,6.80
2022-12-18T20:11:31.541Z,6.80
2022-12-18T20:13:58.311Z,6.80
2022-12-18T20:16:25.038Z,6.80
2022-12-18T20:18:52.431Z,6.90
2022-12-18T20:21:19.608Z,6.90
2022-12-18T20:23:46.298Z,6.90
2022-12-18T20:26:13.178Z,7.00
2022-12-18T20:28:40.346Z,7.00
2022-12-18T20:31:07.748Z,7.00
2022-12-18T20:33:34.963Z,7.10
2022-12-18T20:36:02.854Z,7.10
2022-12-18T20:38:30.368Z,7.20
2022-12-18T20:40:58.427Z,7.20
2022-12-18T20:43:25.154Z,7.20
2022-12-18T20:45:51.902Z,7.20
2022-12-18T20:48:23.561Z,7.20
2022-12-18T20:51:04.189Z,7.30
2022-12-18T20:53:31.148Z,7.30
2022-12-18T20:55:57.860Z,7.40
2022-12-18T20:58:24.973Z,7.40
2022-12-18T21:01:05.973Z,7.40
2022-12-18T21:03:32.766Z,7.50
2022-12-18T21:05:59.462Z,7.50
2022-12-18T21:08:26.152Z,7.50
2022-12-18T21:10:52.868Z,7.60
2022-12-18T21:13:22.268Z,7.60
2022-12-18T21:15:48.952Z,7.60
2022-12-18T21:18:15.637Z,7.60
2022-12-18T21:20:42.384Z,7.60
2022-12-18T21:23:16.242Z,7.70
2022-12-18T21:25:44.212Z,7.70
2022-12-18T21:28:12.324Z,7.70
2022-12-18T21:30:39.074Z,7.70
2022-12-18T21:33:05.767Z,7.70
2022-12-18T21:35:32.472Z,7.80
2022-12-18T21:37:59.153Z,7.80
2022-12-18T21:40:25.837Z,7.80
2022-12-18T21:42:52.666Z,7.80
2022-12-18T21:45:19.482Z,7.80
2022-12-18T21:47:46.187Z,7.80
2022-12-18T21:50:12.914Z,7.90
2022-12-18T21:52:39.638Z,7.90
2022-12-18T21:55:09.963Z,7.90
2022-12-18T21:57:38.276Z,7.90
2022-12-18T22:00:06.330Z,8.00
2022-12-18T22:02:36.058Z,8.00
2022-12-18T22:05:02.896Z,8.00
2022-12-18T22:07:29.970Z,8.00
2022-12-18T22:09:58.807Z,8.00
2022-12-18T22:12:26.780Z,8.00
2022-12-18T22:14:53.548Z,8.10
2022-12-18T22:17:20.198Z,8.10
2022-12-18T22:19:48.026Z,8.10
2022-12-18T22:22:14.722Z,8.10
2022-12-18T22:24:41.460Z,8.10
2022-12-18T22:27:09.063Z,8.10
2022-12-18T22:29:35.831Z,8.10
2022-12-18T22:32:03.277Z,8.20
2022-12-18T22:34:34.241Z,8.20
2022-12-18T22:37:03.014Z,8.20
2022-12-18T22:39:30.023Z,8.20
2022-12-18T22:41:57.584Z,8.20
2022-12-18T22:44:24.438Z,8.20
2022-12-18T22:47:05.614Z,8.30
2022-12-18T22:49:34.940Z,8.30
2022-12-18T22:52:02.788Z,8.30
2022-12-18T22:54:30.905Z,8.40
2022-12-18T22:56:57.612Z,8.40
2022-12-18T22:59:24.377Z,8.40
2022-12-18T23:01:58.700Z,8.40
2022-12-18T23:04:36.259Z,8.50
2022-12-18T23:07:04.668Z,8.50
2022-12-18T23:09:31.419Z,8.50
2022-12-18T23:11:58.103Z,8.50
2022-12-18T23:14:24.825Z,8.60
2022-12-18T23:16:52.331Z,8.60
2022-12-18T23:19:20.139Z,8.60
2022-12-18T23:21:46.934Z,8.70
2022-12-18T23:24:13.720Z,8.70
2022-12-18T23:26:40.431Z,8.70
2022-12-18T23:29:07.171Z,8.70
2022-12-18T23:31:35.300Z,8.80
2022-12-18T23:34:02.345Z,8.80
2022-12-18T23:36:29.571Z,8.80
2022-12-18T23:39:00.012Z,8.80
2022-12-18T23:41:28.396Z,8.90
2022-12-18T23:43:55.063Z,8.90
2022-12-18T23:46:24.592Z,8.90
2022-12-18T23:48:51.389Z,8.90
2022-12-18T23:51:19.361Z,9.00
2022-12-18T23:53:46.254Z,9.00
2022-12-18T23:56:13.149Z,9.00
2022-12-18T23:58:39.992Z,9.10
